Aviation Digital Data Service (ADDS)

Output produced by METARs form (1112 UTC 22 November 2017)
found at http://aviationweather.gov/adds/metars/
 
KHYA 220527Z 2206/2306 18011KT P6SM BKN050 
     FM221000 18004KT P6SM -RA OVC040 
     FM221200 17005KT 4SM -RA BR OVC040 
     FM221500 18005KT 1SM RA BR OVC010 WS020/19040KT 
     FM221900 30010KT 3SM -RA BR OVC008 
     FM222300 33017G28KT P6SM BKN015 
     FM230200 33019G32KT P6SM SCT030